Time;durP1;ratioP1;P1;durP2;ratioP2;P2;SDS_P1;SDS_P2;PMS_P1;PMS_P2;Temp;Humidity;BMP_temperature;BMP_pressure;BME280_temperature;BME280_humidity;BME280_pressure;Samples;Min_cycle;Max_cycle;Signal;HPM_P1;HPM_P2
2021/09/28 00:01:36;;;;;;;8.77;7.55;;;;;;;;;;5029256;28;20215;-43
2021/09/28 00:04:03;;;;;;;7.32;6.50;;;;;;;;;;5033850;28;20551;-42
2021/09/28 00:06:29;;;;;;;7.05;6.28;;;;;;;;;;5028280;28;20447;-42
2021/09/28 00:08:55;;;;;;;8.82;8.00;;;;;;;;;;5033451;28;20176;-43
2021/09/28 00:11:21;;;;;;;9.80;6.93;;;;;;;;;;5030522;28;20185;-43
2021/09/28 00:13:47;;;;;;;7.85;6.63;;;;;;;;;;5014346;28;20226;-43
2021/09/28 00:16:13;;;;;;;9.95;7.88;;;;;;;;;;5020368;28;20270;-43
2021/09/28 00:18:39;;;;;;;8.10;7.32;;;;;;;;;;5036075;28;20703;-43
2021/09/28 00:21:05;;;;;;;8.00;7.18;;;;;;;;;;5018365;28;20294;-42
2021/09/28 00:23:31;;;;;;;9.80;7.15;;;;;;;;;;5018223;28;20211;-42
2021/09/28 00:25:57;;;;;;;7.78;7.00;;;;;;;;;;5022842;28;20190;-43
2021/09/28 00:28:24;;;;;;;7.38;6.68;;;;;;;;;;5038294;28;20597;-42
2021/09/28 00:30:51;;;;;;;7.50;6.80;;;;;;;;;;5027124;28;20206;-43
2021/09/28 00:33:17;;;;;;;7.95;7.15;;;;;;;;;;5025778;28;20195;-42
2021/09/28 00:35:43;;;;;;;7.65;6.90;;;;;;;;;;5025385;28;20184;-43
2021/09/28 00:38:09;;;;;;;8.73;7.18;;;;;;;;;;5018455;28;20182;-42
2021/09/28 00:40:35;;;;;;;8.80;7.18;;;;;;;;;;5029306;28;20243;-42
2021/09/28 00:43:01;;;;;;;8.25;6.75;;;;;;;;;;5037626;28;20168;-43
2021/09/28 00:45:27;;;;;;;7.30;6.28;;;;;;;;;;5037076;28;20183;-43
2021/09/28 00:47:53;;;;;;;7.78;6.55;;;;;;;;;;5019435;28;20176;-43
2021/09/28 00:50:19;;;;;;;8.63;6.57;;;;;;;;;;5024884;28;20207;-42
2021/09/28 00:52:46;;;;;;;8.48;6.50;;;;;;;;;;5037650;28;20195;-43
2021/09/28 00:55:14;;;;;;;8.43;6.80;;;;;;;;;;5034119;28;20268;-42
2021/09/28 00:57:41;;;;;;;7.78;6.97;;;;;;;;;;5026953;28;20254;-42
2021/09/28 01:00:08;;;;;;;7.40;6.70;;;;;;;;;;5037390;28;20214;-42
2021/09/28 01:02:34;;;;;;;7.30;6.57;;;;;;;;;;5033403;28;20211;-43
2021/09/28 01:05:03;;;;;;;9.00;6.10;;;;;;;;;;5036142;28;20172;-43
2021/09/28 01:07:30;;;;;;;7.15;6.32;;;;;;;;;;5024774;28;20553;-42
2021/09/28 01:09:56;;;;;;;8.65;6.78;;;;;;;;;;5021709;28;20568;-42
2021/09/28 01:12:22;;;;;;;7.03;6.32;;;;;;;;;;5031717;28;20191;-42
2021/09/28 01:14:48;;;;;;;8.80;7.13;;;;;;;;;;5035897;28;20184;-43
2021/09/28 01:17:15;;;;;;;6.93;6.22;;;;;;;;;;5036651;28;20194;-43
2021/09/28 01:19:41;;;;;;;7.47;6.78;;;;;;;;;;5035641;28;20475;-43
2021/09/28 01:22:08;;;;;;;7.00;6.30;;;;;;;;;;5037259;28;20230;-43
2021/09/28 01:24:34;;;;;;;7.20;6.05;;;;;;;;;;5036493;28;20837;-43
2021/09/28 01:27:00;;;;;;;6.85;5.68;;;;;;;;;;5023549;28;20176;-43
2021/09/28 01:29:26;;;;;;;7.55;6.75;;;;;;;;;;5017954;28;20544;-43
2021/09/28 01:31:52;;;;;;;8.52;6.82;;;;;;;;;;5035864;28;20206;-42
2021/09/28 01:34:19;;;;;;;7.65;5.97;;;;;;;;;;5036300;28;20689;-42
2021/09/28 01:36:47;;;;;;;7.68;5.85;;;;;;;;;;5033651;28;20184;-42
2021/09/28 01:39:14;;;;;;;6.50;5.90;;;;;;;;;;5036257;28;20187;-43
2021/09/28 01:41:40;;;;;;;9.30;6.93;;;;;;;;;;5036499;28;20218;-42
2021/09/28 01:44:17;;;;;;;6.65;5.20;;;;;;;;;;5036787;28;20223;-42
2021/09/28 01:46:44;;;;;;;6.50;5.82;;;;;;;;;;5026501;28;20172;-42
2021/09/28 01:49:11;;;;;;;7.82;6.15;;;;;;;;;;5037444;28;20612;-46
2021/09/28 01:51:38;;;;;;;7.10;6.40;;;;;;;;;;5036608;28;20214;-42
2021/09/28 01:54:04;;;;;;;6.75;6.15;;;;;;;;;;5018706;28;20266;-42
2021/09/28 01:56:30;;;;;;;6.60;5.80;;;;;;;;;;5017085;28;20169;-42
2021/09/28 01:59:00;;;;;;;6.50;5.82;;;;;;;;;;5027014;28;20199;-42
2021/09/28 02:01:27;;;;;;;6.72;6.00;;;;;;;;;;5035464;28;20216;-43
2021/09/28 02:03:53;;;;;;;6.55;5.90;;;;;;;;;;5035937;28;20637;-42
2021/09/28 02:06:23;;;;;;;6.65;6.05;;;;;;;;;;5036007;28;20254;-42
2021/09/28 02:08:49;;;;;;;7.57;5.88;;;;;;;;;;5029596;28;20187;-42
2021/09/28 02:11:15;;;;;;;6.82;6.22;;;;;;;;;;5036462;28;20188;-42
2021/09/28 02:13:41;;;;;;;5.70;5.20;;;;;;;;;;5036078;28;20176;-42
2021/09/28 02:16:07;;;;;;;5.78;5.18;;;;;;;;;;5017236;28;20223;-42
2021/09/28 02:18:33;;;;;;;5.80;5.30;;;;;;;;;;5018417;28;20172;-42
2021/09/28 02:21:00;;;;;;;5.85;5.25;;;;;;;;;;5017779;28;20611;-43
2021/09/28 02:23:26;;;;;;;6.85;5.50;;;;;;;;;;5016476;28;20445;-43
2021/09/28 02:25:52;;;;;;;7.70;5.53;;;;;;;;;;5016880;28;20192;-43
2021/09/28 02:28:18;;;;;;;6.03;5.43;;;;;;;;;;5034337;28;20179;-43
2021/09/28 02:30:44;;;;;;;6.82;5.45;;;;;;;;;;5029450;28;20262;-43
2021/09/28 02:33:10;;;;;;;7.60;5.85;;;;;;;;;;5035890;28;20490;-43
2021/09/28 02:35:36;;;;;;;5.97;5.38;;;;;;;;;;5035775;28;20183;-42
2021/09/28 02:38:03;;;;;;;6.35;5.72;;;;;;;;;;5036197;28;20171;-43
2021/09/28 02:40:29;;;;;;;6.32;5.65;;;;;;;;;;5034372;28;20454;-43
2021/09/28 02:42:55;;;;;;;7.50;5.80;;;;;;;;;;5034870;28;20249;-43
2021/09/28 02:45:21;;;;;;;6.20;5.07;;;;;;;;;;5020083;28;20172;-43
2021/09/28 02:47:47;;;;;;;6.03;5.43;;;;;;;;;;5029403;28;20495;-42
2021/09/28 02:50:13;;;;;;;5.65;5.15;;;;;;;;;;5032094;28;20179;-42
2021/09/28 02:52:40;;;;;;;6.00;5.50;;;;;;;;;;5032164;28;20190;-42
2021/09/28 02:55:06;;;;;;;8.48;5.25;;;;;;;;;;5032971;28;20255;-42
2021/09/28 02:57:32;;;;;;;6.30;5.28;;;;;;;;;;5018086;28;20180;-42
2021/09/28 02:59:58;;;;;;;5.95;5.35;;;;;;;;;;5016965;28;20199;-43
2021/09/28 03:02:24;;;;;;;6.75;5.18;;;;;;;;;;5021934;28;20298;-43
2021/09/28 03:04:50;;;;;;;6.90;5.82;;;;;;;;;;5033336;28;20198;-42
2021/09/28 03:07:16;;;;;;;5.47;4.93;;;;;;;;;;5017768;28;20184;-42
2021/09/28 03:09:42;;;;;;;5.20;4.80;;;;;;;;;;5034739;28;20188;-42
2021/09/28 03:12:08;;;;;;;5.97;5.03;;;;;;;;;;5034767;28;20198;-43
2021/09/28 03:14:34;;;;;;;6.18;4.47;;;;;;;;;;5034048;28;20261;-42
2021/09/28 03:17:00;;;;;;;5.50;4.97;;;;;;;;;;5035414;28;20203;-42
2021/09/28 03:19:26;;;;;;;6.18;5.18;;;;;;;;;;5033626;28;20507;-43
2021/09/28 03:21:53;;;;;;;5.22;4.60;;;;;;;;;;5034890;28;20210;-43
2021/09/28 03:24:19;;;;;;;5.85;5.25;;;;;;;;;;5020639;28;20176;-43
2021/09/28 03:26:45;;;;;;;6.45;4.82;;;;;;;;;;5026620;28;20179;-42
2021/09/28 03:29:11;;;;;;;5.47;4.80;;;;;;;;;;5016641;28;20548;-43
2021/09/28 03:31:37;;;;;;;5.60;5.10;;;;;;;;;;5023496;28;20627;-43
2021/09/28 03:34:04;;;;;;;5.00;4.50;;;;;;;;;;5017396;28;20193;-42
2021/09/28 03:36:30;;;;;;;5.60;5.10;;;;;;;;;;5035047;28;20168;-42
2021/09/28 03:38:56;;;;;;;5.82;5.20;;;;;;;;;;5034617;28;20254;-43
2021/09/28 03:41:22;;;;;;;6.55;5.32;;;;;;;;;;5022000;28;20215;-42
2021/09/28 03:43:48;;;;;;;6.40;5.00;;;;;;;;;;5018324;28;20184;-42
2021/09/28 03:46:14;;;;;;;5.88;4.65;;;;;;;;;;5017266;28;20183;-42
2021/09/28 03:48:40;;;;;;;5.57;5.00;;;;;;;;;;5018229;28;20180;-42
2021/09/28 03:51:09;;;;;;;5.65;4.85;;;;;;;;;;5032327;28;20191;-43
2021/09/28 03:53:35;;;;;;;6.18;5.32;;;;;;;;;;5014213;28;20169;-42
2021/09/28 03:56:01;;;;;;;5.82;5.10;;;;;;;;;;5029910;28;20187;-42
2021/09/28 03:58:27;;;;;;;5.72;5.22;;;;;;;;;;5021079;28;20181;-42
2021/09/28 04:00:53;;;;;;;5.22;4.72;;;;;;;;;;5014872;28;20614;-43
2021/09/28 04:03:20;;;;;;;5.47;4.97;;;;;;;;;;5029814;28;20619;-43
2021/09/28 04:05:46;;;;;;;7.05;5.05;;;;;;;;;;5027263;28;20259;-43
2021/09/28 04:08:12;;;;;;;8.30;4.72;;;;;;;;;;5029646;28;20769;-43
2021/09/28 04:10:38;;;;;;;4.47;4.05;;;;;;;;;;5015201;28;20181;-43
2021/09/28 04:13:08;;;;;;;4.32;3.92;;;;;;;;;;5022246;28;20245;-42
2021/09/28 04:15:40;;;;;;;6.82;4.68;;;;;;;;;;5033224;28;20429;-43
2021/09/28 04:18:12;;;;;;;4.93;4.45;;;;;;;;;;5032253;28;20172;-42
2021/09/28 04:20:41;;;;;;;5.22;4.72;;;;;;;;;;5031907;28;20233;-42
2021/09/28 04:23:07;;;;;;;7.82;4.88;;;;;;;;;;5033518;28;20176;-42
2021/09/28 04:25:33;;;;;;;7.25;4.10;;;;;;;;;;5033595;28;20204;-43
2021/09/28 04:27:59;;;;;;;11.00;5.43;;;;;;;;;;5034265;28;20198;-42
2021/09/28 04:30:25;;;;;;;9.23;5.35;;;;;;;;;;5034079;28;20180;-43
2021/09/28 04:32:51;;;;;;;8.93;5.00;;;;;;;;;;5033817;28;20175;-43
2021/09/28 04:35:18;;;;;;;10.73;5.30;;;;;;;;;;5028747;28;20200;-43
2021/09/28 04:37:44;;;;;;;6.40;4.28;;;;;;;;;;5014584;28;20216;-42
2021/09/28 04:40:11;;;;;;;8.52;4.60;;;;;;;;;;5014557;28;20172;-42
2021/09/28 04:42:37;;;;;;;5.28;4.03;;;;;;;;;;5014563;28;20196;-43
2021/09/28 04:45:04;;;;;;;6.82;4.15;;;;;;;;;;5013823;28;20192;-42
2021/09/28 04:47:30;;;;;;;7.03;4.30;;;;;;;;;;5024461;28;20222;-42
2021/09/28 04:49:56;;;;;;;4.90;3.90;;;;;;;;;;5014151;28;20259;-42
2021/09/28 04:52:22;;;;;;;5.97;4.00;;;;;;;;;;5023319;28;20271;-42
2021/09/28 04:54:48;;;;;;;8.13;4.20;;;;;;;;;;5031982;28;20497;-43
2021/09/28 04:57:14;;;;;;;6.82;3.67;;;;;;;;;;5014504;28;20219;-43
2021/09/28 04:59:40;;;;;;;4.50;3.42;;;;;;;;;;5014178;28;20552;-43
2021/09/28 05:02:06;;;;;;;6.78;3.88;;;;;;;;;;5030613;28;20298;-43
2021/09/28 05:04:32;;;;;;;4.72;3.05;;;;;;;;;;5034951;28;20283;-42
2021/09/28 05:06:58;;;;;;;5.25;3.35;;;;;;;;;;5037065;28;20234;-42
2021/09/28 05:09:24;;;;;;;4.43;2.80;;;;;;;;;;5022745;28;20189;-43
2021/09/28 05:11:50;;;;;;;4.75;3.58;;;;;;;;;;5018993;28;20183;-42
2021/09/28 05:14:16;;;;;;;3.67;2.92;;;;;;;;;;5018524;28;20558;-42
2021/09/28 05:16:42;;;;;;;5.47;3.05;;;;;;;;;;5025320;28;20630;-43
2021/09/28 05:19:08;;;;;;;4.93;2.72;;;;;;;;;;5030910;28;20809;-42
2021/09/28 05:21:34;;;;;;;3.50;2.42;;;;;;;;;;5017795;28;20207;-43
2021/09/28 05:24:01;;;;;;;3.85;2.72;;;;;;;;;;5017230;28;20227;-42
2021/09/28 05:26:27;;;;;;;4.55;2.80;;;;;;;;;;5033836;28;20234;-42
2021/09/28 05:28:53;;;;;;;5.63;2.95;;;;;;;;;;5037289;28;20172;-42
2021/09/28 05:31:19;;;;;;;5.93;2.70;;;;;;;;;;5036910;28;20168;-42
2021/09/28 05:33:45;;;;;;;6.28;2.58;;;;;;;;;;5036541;28;20195;-42
2021/09/28 05:36:11;;;;;;;4.78;2.85;;;;;;;;;;5035516;28;20249;-43
2021/09/28 05:38:37;;;;;;;3.50;2.38;;;;;;;;;;5037030;28;20202;-42
2021/09/28 05:41:09;;;;;;;2.72;2.30;;;;;;;;;;5036733;28;20191;-42
2021/09/28 05:43:35;;;;;;;2.38;2.20;;;;;;;;;;5036237;28;20270;-42
2021/09/28 05:46:01;;;;;;;3.47;2.33;;;;;;;;;;5020401;28;20563;-42
2021/09/28 05:48:27;;;;;;;2.78;2.42;;;;;;;;;;5017169;28;20176;-42
2021/09/28 05:50:53;;;;;;;2.45;1.83;;;;;;;;;;5025538;28;20595;-42
2021/09/28 05:53:19;;;;;;;3.17;2.03;;;;;;;;;;5035806;28;20176;-42
2021/09/28 05:55:45;;;;;;;2.55;2.30;;;;;;;;;;5027567;28;20196;-42
2021/09/28 05:58:11;;;;;;;3.22;2.38;;;;;;;;;;5017028;28;20540;-42
2021/09/28 06:00:37;;;;;;;3.50;2.05;;;;;;;;;;5023045;28;20242;-43
2021/09/28 06:03:03;;;;;;;2.33;2.00;;;;;;;;;;5035991;28;20194;-42
2021/09/28 06:05:29;;;;;;;2.90;2.13;;;;;;;;;;5030547;28;20181;-42
2021/09/28 06:07:55;;;;;;;3.83;2.25;;;;;;;;;;5017017;28;20172;-43
2021/09/28 06:10:21;;;;;;;2.58;1.80;;;;;;;;;;5035246;28;20233;-43
2021/09/28 06:12:47;;;;;;;2.55;1.75;;;;;;;;;;5032143;28;20187;-43
2021/09/28 06:15:13;;;;;;;2.30;1.58;;;;;;;;;;5016064;28;20192;-43
2021/09/28 06:17:39;;;;;;;1.90;1.80;;;;;;;;;;5016652;28;20226;-43
2021/09/28 06:20:05;;;;;;;1.58;1.48;;;;;;;;;;5028063;28;20384;-43
2021/09/28 06:22:31;;;;;;;2.40;1.50;;;;;;;;;;5016453;28;20250;-43
2021/09/28 06:24:57;;;;;;;1.60;1.50;;;;;;;;;;5017953;28;20212;-43
2021/09/28 06:27:24;;;;;;;1.90;1.73;;;;;;;;;;5036306;28;20171;-42
2021/09/28 06:29:50;;;;;;;1.85;1.55;;;;;;;;;;5035678;28;20591;-42
2021/09/28 06:32:18;;;;;;;1.67;1.50;;;;;;;;;;5036184;28;20539;-43
2021/09/28 06:34:44;;;;;;;1.65;1.50;;;;;;;;;;5035433;28;20222;-42
2021/09/28 06:37:10;;;;;;;1.40;1.30;;;;;;;;;;5016659;28;20566;-42
2021/09/28 06:39:36;;;;;;;2.72;1.60;;;;;;;;;;5016038;28;20180;-42
2021/09/28 06:42:03;;;;;;;1.55;1.23;;;;;;;;;;5027030;28;20196;-43
2021/09/28 06:44:29;;;;;;;1.30;1.17;;;;;;;;;;5034887;28;20669;-42
2021/09/28 06:46:55;;;;;;;1.85;1.40;;;;;;;;;;5035843;28;20259;-42
2021/09/28 06:49:21;;;;;;;1.40;1.30;;;;;;;;;;5035551;28;20263;-42
2021/09/28 06:51:48;;;;;;;1.40;1.30;;;;;;;;;;5035986;28;20473;-43
2021/09/28 06:54:14;;;;;;;1.58;1.40;;;;;;;;;;5028139;28;20442;-42
2021/09/28 06:56:41;;;;;;;1.40;1.30;;;;;;;;;;5016059;28;20180;-42
2021/09/28 06:59:10;;;;;;;1.50;1.30;;;;;;;;;;5020179;28;20176;-42
2021/09/28 07:01:40;;;;;;;1.30;1.20;;;;;;;;;;5033793;28;20836;-42
2021/09/28 07:04:06;;;;;;;1.70;1.40;;;;;;;;;;5034953;28;20184;-42
2021/09/28 07:06:32;;;;;;;1.10;1.10;;;;;;;;;;5021111;28;20260;-42
2021/09/28 07:08:59;;;;;;;1.48;1.38;;;;;;;;;;5016531;28;20231;-42
2021/09/28 07:11:25;;;;;;;1.05;0.95;;;;;;;;;;5024853;28;20187;-42
2021/09/28 07:13:51;;;;;;;1.73;1.40;;;;;;;;;;5029855;28;20518;-42
2021/09/28 07:16:17;;;;;;;1.40;1.30;;;;;;;;;;5033911;28;20270;-42
2021/09/28 07:18:43;;;;;;;1.50;1.08;;;;;;;;;;5032414;28;20172;-42
2021/09/28 07:21:10;;;;;;;1.33;1.00;;;;;;;;;;5015717;28;20197;-42
2021/09/28 07:23:36;;;;;;;1.00;1.00;;;;;;;;;;5015141;28;20172;-42
2021/09/28 07:26:03;;;;;;;1.17;1.10;;;;;;;;;;5014744;28;20181;-42
2021/09/28 07:28:29;;;;;;;1.38;1.27;;;;;;;;;;5015439;28;20160;-42
2021/09/28 07:30:55;;;;;;;0.90;0.90;;;;;;;;;;5024036;28;20620;-42
2021/09/28 07:33:21;;;;;;;1.23;1.10;;;;;;;;;;5024334;28;20180;-42
2021/09/28 07:35:47;;;;;;;0.93;0.90;;;;;;;;;;5015285;28;20280;-42
2021/09/28 07:38:13;;;;;;;1.00;1.00;;;;;;;;;;5015428;28;20176;-42
2021/09/28 07:40:40;;;;;;;1.25;1.15;;;;;;;;;;5015143;28;20216;-42
2021/09/28 07:43:06;;;;;;;1.48;1.00;;;;;;;;;;5019304;28;20171;-42
2021/09/28 07:45:32;;;;;;;0.80;0.80;;;;;;;;;;5034996;28;20587;-42
2021/09/28 07:47:59;;;;;;;0.82;0.70;;;;;;;;;;5034911;28;20207;-42
2021/09/28 07:50:25;;;;;;;1.38;1.27;;;;;;;;;;5023020;28;20234;-43
2021/09/28 07:52:51;;;;;;;1.10;1.00;;;;;;;;;;5014801;28;20180;-42
2021/09/28 07:55:17;;;;;;;1.15;1.05;;;;;;;;;;5015801;28;20583;-42
2021/09/28 07:57:43;;;;;;;1.23;0.95;;;;;;;;;;5015111;28;20272;-42
2021/09/28 08:00:10;;;;;;;0.93;0.93;;;;;;;;;;5031154;28;20197;-42
2021/09/28 08:02:39;;;;;;;0.80;0.80;;;;;;;;;;5033996;28;20251;-42
2021/09/28 08:05:06;;;;;;;1.08;1.02;;;;;;;;;;5033844;28;20254;-42
2021/09/28 08:07:32;;;;;;;0.88;0.80;;;;;;;;;;5022407;28;20173;-42
2021/09/28 08:09:58;;;;;;;2.58;0.80;;;;;;;;;;5014550;28;20168;-42
2021/09/28 08:12:24;;;;;;;0.93;0.93;;;;;;;;;;5015850;28;20489;-43
2021/09/28 08:14:50;;;;;;;0.57;0.57;;;;;;;;;;5014276;28;20210;-42
2021/09/28 08:17:16;;;;;;;0.80;0.80;;;;;;;;;;5014988;28;20179;-42
2021/09/28 08:19:43;;;;;;;0.93;0.70;;;;;;;;;;5025613;28;20172;-42
2021/09/28 08:22:10;;;;;;;1.48;0.88;;;;;;;;;;5014639;28;20588;-42
2021/09/28 08:24:41;;;;;;;0.80;0.70;;;;;;;;;;5015186;28;20615;-42
2021/09/28 08:29:52;;;;;;;1.67;0.90;;;;;;;;;;5034292;28;20705;-42
2021/09/28 08:32:18;;;;;;;0.98;0.90;;;;;;;;;;5034308;28;20199;-42
2021/09/28 08:34:44;;;;;;;1.02;0.77;;;;;;;;;;5033612;28;20168;-42
2021/09/28 08:37:10;;;;;;;1.13;1.02;;;;;;;;;;5034212;28;20191;-42
2021/09/28 08:39:36;;;;;;;2.15;1.35;;;;;;;;;;5035977;28;20185;-42
2021/09/28 08:42:03;;;;;;;0.82;0.82;;;;;;;;;;5018481;28;20634;-42
2021/09/28 08:44:29;;;;;;;1.00;1.00;;;;;;;;;;5035299;28;20288;-42
2021/09/28 08:46:55;;;;;;;0.75;0.70;;;;;;;;;;5038138;28;20163;-42
2021/09/28 08:49:21;;;;;;;1.10;1.00;;;;;;;;;;5037842;28;20160;-42
2021/09/28 08:51:48;;;;;;;1.00;1.00;;;;;;;;;;5032656;28;20215;-42
2021/09/28 08:54:14;;;;;;;0.82;0.82;;;;;;;;;;5017858;28;20176;-42
2021/09/28 08:56:40;;;;;;;0.80;0.80;;;;;;;;;;5030262;28;20203;-43
2021/09/28 08:59:07;;;;;;;1.10;0.98;;;;;;;;;;5018166;28;20271;-43
2021/09/28 09:01:35;;;;;;;1.17;0.80;;;;;;;;;;5032231;28;20202;-42
2021/09/28 09:04:17;;;;;;;0.90;0.90;;;;;;;;;;5036756;28;20180;-42
2021/09/28 09:06:44;;;;;;;0.73;0.73;;;;;;;;;;5021764;28;20180;-42
2021/09/28 09:09:12;;;;;;;1.27;0.85;;;;;;;;;;5017983;28;20192;-43
2021/09/28 09:11:39;;;;;;;2.47;1.00;;;;;;;;;;5017984;28;20246;-42
2021/09/28 09:14:21;;;;;;;0.82;0.80;;;;;;;;;;5019801;28;20180;-42
2021/09/28 09:16:49;;;;;;;1.00;0.77;;;;;;;;;;5030792;28;20282;-42
2021/09/28 09:19:16;;;;;;;0.98;0.98;;;;;;;;;;5030195;28;20176;-43
2021/09/28 09:21:46;;;;;;;1.73;0.80;;;;;;;;;;5033400;28;20234;-42
2021/09/28 09:24:12;;;;;;;1.27;1.13;;;;;;;;;;5026068;28;20187;-42
2021/09/28 09:26:44;;;;;;;1.27;0.90;;;;;;;;;;5017239;28;20662;-42
2021/09/28 09:29:12;;;;;;;1.35;1.00;;;;;;;;;;5017454;28;20195;-42
2021/09/28 09:31:44;;;;;;;0.90;0.90;;;;;;;;;;5031050;28;20226;-42
2021/09/28 09:34:14;;;;;;;1.23;1.00;;;;;;;;;;5036701;28;20181;-42
2021/09/28 09:36:41;;;;;;;0.95;0.95;;;;;;;;;;5021577;28;20195;-43
2021/09/28 09:39:11;;;;;;;1.15;0.93;;;;;;;;;;5017501;28;20238;-43
2021/09/28 09:41:42;;;;;;;1.00;1.00;;;;;;;;;;5016987;28;20555;-42
2021/09/28 09:44:10;;;;;;;1.45;1.08;;;;;;;;;;5029144;28;20234;-42
2021/09/28 09:46:41;;;;;;;1.38;0.95;;;;;;;;;;5035833;28;20259;-42
2021/09/28 09:49:07;;;;;;;1.08;1.00;;;;;;;;;;5016896;28;20177;-42
2021/09/28 09:51:47;;;;;;;1.60;1.00;;;;;;;;;;5018197;28;20193;-43
2021/09/28 09:54:13;;;;;;;1.17;0.90;;;;;;;;;;5026708;28;20179;-43
2021/09/28 09:56:47;;;;;;;1.25;1.00;;;;;;;;;;5036445;28;20230;-43
2021/09/28 09:59:14;;;;;;;1.10;1.00;;;;;;;;;;5036543;28;20190;-42
2021/09/28 10:01:40;;;;;;;1.40;1.30;;;;;;;;;;5036705;28;20229;-42
2021/09/28 10:04:07;;;;;;;2.22;0.90;;;;;;;;;;5032516;28;20559;-42
2021/09/28 10:06:33;;;;;;;1.40;1.10;;;;;;;;;;5021281;28;20544;-42
2021/09/28 10:08:59;;;;;;;1.08;1.08;;;;;;;;;;5017079;28;20223;-42
2021/09/28 10:11:29;;;;;;;2.15;1.30;;;;;;;;;;5030115;28;20262;-42
2021/09/28 10:13:57;;;;;;;1.90;1.38;;;;;;;;;;5032703;28;20203;-42
2021/09/28 10:16:42;;;;;;;2.80;1.50;;;;;;;;;;5036564;28;20172;-42
2021/09/28 10:19:29;;;;;;;1.20;1.10;;;;;;;;;;5029720;28;20172;-42
2021/09/28 10:21:59;;;;;;;1.75;1.50;;;;;;;;;;5018201;28;20216;-43
2021/09/28 10:24:26;;;;;;;1.83;1.13;;;;;;;;;;5026630;28;20176;-42
2021/09/28 10:27:01;;;;;;;1.35;1.25;;;;;;;;;;5036200;28;20164;-42
2021/09/28 10:29:44;;;;;;;1.25;1.08;;;;;;;;;;5036062;28;20214;-42
2021/09/28 10:32:26;;;;;;;1.25;1.17;;;;;;;;;;5035861;28;20193;-42
2021/09/28 10:35:05;;;;;;;1.40;1.30;;;;;;;;;;5032145;28;20562;-42
2021/09/28 10:37:52;;;;;;;1.92;1.20;;;;;;;;;;5031782;28;20180;-42
2021/09/28 10:40:18;;;;;;;1.10;1.10;;;;;;;;;;5035992;28;20202;-42
2021/09/28 10:42:48;;;;;;;1.30;1.20;;;;;;;;;;5035851;28;20206;-42
2021/09/28 10:45:29;;;;;;;1.70;1.60;;;;;;;;;;5034095;28;20206;-42
2021/09/28 10:48:11;;;;;;;2.72;1.50;;;;;;;;;;5035157;28;20176;-43
2021/09/28 10:50:43;;;;;;;0.90;0.90;;;;;;;;;;5035600;28;20532;-43
2021/09/28 10:53:21;;;;;;;1.58;1.45;;;;;;;;;;5015887;28;20259;-43
2021/09/28 10:56:06;;;;;;;1.50;1.40;;;;;;;;;;5024899;28;20266;-42
2021/09/28 10:58:49;;;;;;;1.33;1.23;;;;;;;;;;5035434;28;20160;-42
2021/09/28 11:01:15;;;;;;;1.83;1.73;;;;;;;;;;5022539;28;20700;-42
2021/09/28 11:03:48;;;;;;;1.45;1.35;;;;;;;;;;5023683;28;20183;-42
2021/09/28 11:06:15;;;;;;;2.00;1.85;;;;;;;;;;5023318;28;20177;-42
2021/09/28 11:08:41;;;;;;;1.92;1.70;;;;;;;;;;5015532;28;20195;-42
2021/09/28 11:11:08;;;;;;;1.90;1.30;;;;;;;;;;5024343;28;20210;-42
2021/09/28 11:13:36;;;;;;;1.45;1.35;;;;;;;;;;5031708;28;20176;-43
2021/09/28 11:16:04;;;;;;;1.75;1.38;;;;;;;;;;5015628;28;20259;-43
2021/09/28 11:18:31;;;;;;;1.45;1.35;;;;;;;;;;5016818;28;20187;-43
2021/09/28 11:21:14;;;;;;;2.10;1.73;;;;;;;;;;5034496;28;20188;-42
2021/09/28 11:23:41;;;;;;;1.58;1.42;;;;;;;;;;5030856;28;20211;-42
2021/09/28 11:26:07;;;;;;;1.70;1.60;;;;;;;;;;5015605;28;20187;-42
2021/09/28 11:28:33;;;;;;;2.10;1.90;;;;;;;;;;5015463;28;20192;-42
2021/09/28 11:31:03;;;;;;;1.60;1.50;;;;;;;;;;5015460;28;20256;-43
2021/09/28 11:33:36;;;;;;;1.70;1.60;;;;;;;;;;5016409;28;20524;-43
2021/09/28 11:36:03;;;;;;;1.80;1.70;;;;;;;;;;5034606;28;20218;-43
2021/09/28 11:38:33;;;;;;;1.75;1.65;;;;;;;;;;5035155;28;20192;-42
2021/09/28 11:41:01;;;;;;;2.28;2.08;;;;;;;;;;5033744;28;20211;-40
2021/09/28 11:43:28;;;;;;;2.30;1.80;;;;;;;;;;5032917;28;20227;-40
2021/09/28 11:45:57;;;;;;;2.65;1.83;;;;;;;;;;5018109;28;20268;-40
2021/09/28 11:48:23;;;;;;;2.55;1.90;;;;;;;;;;5018398;28;20531;-40
2021/09/28 11:50:49;;;;;;;2.67;1.90;;;;;;;;;;5022321;28;20185;-40
2021/09/28 11:53:15;;;;;;;3.05;1.90;;;;;;;;;;5033907;28;20595;-40
2021/09/28 11:55:41;;;;;;;2.28;2.08;;;;;;;;;;5026685;28;20173;-40
2021/09/28 11:58:08;;;;;;;2.17;1.83;;;;;;;;;;5015371;28;20184;-41
2021/09/28 12:00:35;;;;;;;2.40;2.20;;;;;;;;;;5014903;28;20207;-41
2021/09/28 12:03:08;;;;;;;2.15;1.98;;;;;;;;;;5015608;28;20192;-41
2021/09/28 12:05:46;;;;;;;3.00;2.70;;;;;;;;;;5021520;28;20230;-41
2021/09/28 12:08:25;;;;;;;1.85;1.75;;;;;;;;;;5039835;28;20206;-41
2021/09/28 12:10:52;;;;;;;3.42;2.70;;;;;;;;;;5031479;28;20551;-41
2021/09/28 12:13:19;;;;;;;2.28;2.08;;;;;;;;;;5037749;28;20186;-41
2021/09/28 12:16:01;;;;;;;2.45;2.25;;;;;;;;;;5027997;28;20188;-41
2021/09/28 12:18:27;;;;;;;2.22;2.00;;;;;;;;;;5036304;28;20261;-41
2021/09/28 12:21:06;;;;;;;2.38;2.08;;;;;;;;;;5036701;28;20215;-41
2021/09/28 12:23:32;;;;;;;2.60;2.40;;;;;;;;;;5043515;28;20179;-41
2021/09/28 12:25:58;;;;;;;2.42;2.03;;;;;;;;;;5033889;28;20180;-42
2021/09/28 12:28:26;;;;;;;3.60;2.17;;;;;;;;;;5033382;28;20168;-41
2021/09/28 12:30:54;;;;;;;2.97;2.50;;;;;;;;;;5029457;28;20186;-42
2021/09/28 12:33:20;;;;;;;2.22;2.10;;;;;;;;;;5036428;28;20179;-41
2021/09/28 12:35:51;;;;;;;2.42;2.00;;;;;;;;;;5025014;28;20195;-42
2021/09/28 12:38:17;;;;;;;2.03;1.92;;;;;;;;;;5026355;28;20178;-41
2021/09/28 12:40:44;;;;;;;2.10;1.90;;;;;;;;;;5024011;28;20188;-41
2021/09/28 12:43:14;;;;;;;3.15;2.20;;;;;;;;;;5016742;28;20180;-41
2021/09/28 12:45:43;;;;;;;2.45;2.05;;;;;;;;;;5037391;28;20479;-41
2021/09/28 12:48:09;;;;;;;2.90;1.80;;;;;;;;;;5020007;28;20185;-41
2021/09/28 12:50:36;;;;;;;3.10;2.17;;;;;;;;;;5027626;28;20196;-41
2021/09/28 12:53:06;;;;;;;3.22;2.28;;;;;;;;;;5021155;28;20230;-41
2021/09/28 12:55:36;;;;;;;2.35;2.10;;;;;;;;;;5021081;28;20180;-41
2021/09/28 12:58:07;;;;;;;2.80;2.40;;;;;;;;;;5033999;28;20275;-42
2021/09/28 13:00:33;;;;;;;3.22;2.10;;;;;;;;;;5025502;28;20192;-41
2021/09/28 13:03:02;;;;;;;2.28;2.08;;;;;;;;;;5027669;28;20184;-41
2021/09/28 13:05:29;;;;;;;3.42;2.08;;;;;;;;;;5027413;28;20302;-41
2021/09/28 13:07:54;;;;;;;12.23;7.85;;;;;;;;;;5016801;28;20189;-41
2021/09/28 13:10:21;;;;;;;4.95;3.55;;;;;;;;;;5024934;28;20507;-41
2021/09/28 13:12:47;;;;;;;6.22;4.32;;;;;;;;;;5024923;28;20214;-41
2021/09/28 13:15:17;;;;;;;5.10;3.42;;;;;;;;;;5031393;28;20184;-41
2021/09/28 13:17:43;;;;;;;3.72;2.85;;;;;;;;;;5033889;28;20184;-42
2021/09/28 13:20:10;;;;;;;5.07;3.28;;;;;;;;;;5029839;28;20189;-42
2021/09/28 13:22:36;;;;;;;4.07;3.20;;;;;;;;;;5014178;28;20205;-42
2021/09/28 13:25:03;;;;;;;3.80;3.03;;;;;;;;;;5025958;28;20171;-42
2021/09/28 13:27:29;;;;;;;4.38;3.47;;;;;;;;;;5026702;28;20602;-42
2021/09/28 13:29:55;;;;;;;8.70;5.18;;;;;;;;;;5025860;28;20180;-42
2021/09/28 13:32:21;;;;;;;7.20;4.95;;;;;;;;;;5037360;28;20262;-42
2021/09/28 13:34:47;;;;;;;12.02;6.72;;;;;;;;;;5021239;28;20272;-41
2021/09/28 13:37:14;;;;;;;10.30;7.55;;;;;;;;;;5026029;28;20191;-41
2021/09/28 13:39:41;;;;;;;11.65;9.52;;;;;;;;;;5037554;28;20514;-41
2021/09/28 13:42:07;;;;;;;12.80;8.48;;;;;;;;;;5017888;28;20468;-41
2021/09/28 13:44:33;;;;;;;18.20;12.30;;;;;;;;;;5027137;28;20587;-41
2021/09/28 13:46:59;;;;;;;12.35;10.20;;;;;;;;;;5024828;28;20592;-42
2021/09/28 13:49:25;;;;;;;15.18;10.43;;;;;;;;;;5018816;28;20192;-42
2021/09/28 13:51:51;;;;;;;14.05;10.35;;;;;;;;;;5017755;28;20583;-42
2021/09/28 13:54:17;;;;;;;12.82;9.50;;;;;;;;;;5016875;28;20192;-41
2021/09/28 13:56:43;;;;;;;13.75;9.43;;;;;;;;;;5021877;28;20626;-41
2021/09/28 13:59:09;;;;;;;13.18;9.10;;;;;;;;;;5036897;28;20176;-41
2021/09/28 14:01:35;;;;;;;15.30;9.23;;;;;;;;;;5036016;28;20578;-41
2021/09/28 14:04:01;;;;;;;14.63;8.70;;;;;;;;;;5035282;28;20453;-41
2021/09/28 14:06:27;;;;;;;13.65;8.77;;;;;;;;;;5035766;28;20625;-41
2021/09/28 14:08:53;;;;;;;13.07;7.45;;;;;;;;;;5036278;28;20267;-41
2021/09/28 14:11:19;;;;;;;8.88;7.18;;;;;;;;;;5036405;28;20250;-42
2021/09/28 14:13:46;;;;;;;10.80;7.22;;;;;;;;;;5036127;28;20172;-41
2021/09/28 14:16:12;;;;;;;10.68;6.68;;;;;;;;;;5034478;28;20180;-41
2021/09/28 14:18:38;;;;;;;7.47;6.25;;;;;;;;;;5018606;28;20187;-41
2021/09/28 14:21:05;;;;;;;9.10;6.35;;;;;;;;;;5036555;28;20203;-41
2021/09/28 14:23:31;;;;;;;8.93;6.25;;;;;;;;;;5022818;28;20251;-41
2021/09/28 14:25:57;;;;;;;6.88;5.38;;;;;;;;;;5016239;28;20481;-41
2021/09/28 14:28:23;;;;;;;8.45;5.50;;;;;;;;;;5032551;28;20234;-41
2021/09/28 14:30:50;;;;;;;5.88;5.20;;;;;;;;;;5034947;28;20164;-42
2021/09/28 14:33:17;;;;;;;6.93;4.88;;;;;;;;;;5035565;28;20178;-42
2021/09/28 14:35:43;;;;;;;5.22;4.28;;;;;;;;;;5035590;28;20566;-42
2021/09/28 14:38:09;;;;;;;5.53;3.88;;;;;;;;;;5024245;28;20175;-42
2021/09/28 14:40:35;;;;;;;3.85;3.53;;;;;;;;;;5035879;28;20180;-42
2021/09/28 14:43:01;;;;;;;4.22;3.78;;;;;;;;;;5030952;28;20191;-42
2021/09/28 14:45:28;;;;;;;4.18;3.78;;;;;;;;;;5034067;28;20559;-42
2021/09/28 14:47:54;;;;;;;4.63;3.35;;;;;;;;;;5022190;28;20192;-41